Time;durP1;ratioP1;P1;durP2;ratioP2;P2;SDS_P1;SDS_P2;PMS_P1;PMS_P2;Temp;Humidity;BMP_temperature;BMP_pressure;BME280_temperature;BME280_humidity;BME280_pressure;Samples;Min_cycle;Max_cycle;Signal;HPM_P1;HPM_P2
2022/06/07 00:02:06;;;;;;;13.03;9.47;;;13.20;99.90;;;;;;5031609;28;20175;-66
2022/06/07 00:04:33;;;;;;;10.17;9.27;;;13.20;99.90;;;;;;5031400;28;20257;-67
2022/06/07 00:06:58;;;;;;;10.00;9.13;;;13.30;99.90;;;;;;5010527;28;20204;-67
2022/06/07 00:09:24;;;;;;;10.37;9.37;;;13.20;99.90;;;;;;5027109;28;20180;-67
2022/06/07 00:11:51;;;;;;;10.60;9.60;;;13.20;99.90;;;;;;5048812;28;20181;-66
2022/06/07 00:14:16;;;;;;;10.83;9.33;;;13.10;99.90;;;;;;5051028;28;20593;-67
2022/06/07 00:16:42;;;;;;;12.27;9.37;;;13.10;99.90;;;;;;5033051;28;20222;-67
2022/06/07 00:19:08;;;;;;;11.00;9.43;;;13.10;99.90;;;;;;5031418;28;20184;-66
2022/06/07 00:21:33;;;;;;;11.47;9.97;;;13.00;99.90;;;;;;5031142;28;20558;-66
2022/06/07 00:24:00;;;;;;;10.93;9.70;;;13.00;99.90;;;;;;5030961;28;20285;-67
2022/06/07 00:26:28;;;;;;;10.27;9.27;;;13.00;99.90;;;;;;5044576;28;20245;-66
2022/06/07 00:28:54;;;;;;;9.57;8.53;;;13.00;99.90;;;;;;5051340;28;20525;-65
2022/06/07 00:31:19;;;;;;;9.23;8.23;;;13.00;99.90;;;;;;5038793;28;20271;-64
2022/06/07 00:33:46;;;;;;;8.57;7.97;;;12.90;99.90;;;;;;5034618;28;20190;-67
2022/06/07 00:36:12;;;;;;;8.10;7.50;;;12.90;99.90;;;;;;5051437;28;20376;-67
2022/06/07 00:38:38;;;;;;;8.40;7.60;;;12.90;99.90;;;;;;5050089;28;20194;-66
2022/06/07 00:41:03;;;;;;;7.70;7.07;;;12.90;99.90;;;;;;5035313;28;20175;-67
2022/06/07 00:43:30;;;;;;;7.90;7.10;;;13.00;99.90;;;;;;5035440;28;20183;-67
2022/06/07 00:45:59;;;;;;;7.10;6.50;;;12.90;99.90;;;;;;5055256;28;20715;-66
2022/06/07 00:48:25;;;;;;;8.13;7.33;;;12.90;99.90;;;;;;5050996;28;20211;-67
2022/06/07 00:50:58;;;;;;;8.47;7.07;;;12.90;99.90;;;;;;5035485;28;20191;-66
2022/06/07 00:53:30;;;;;;;7.27;6.67;;;12.90;99.90;;;;;;5038297;28;20270;-65
2022/06/07 00:55:56;;;;;;;7.23;6.73;;;12.80;99.90;;;;;;5055023;28;20648;-67
2022/06/07 00:58:25;;;;;;;7.67;7.03;;;12.90;99.90;;;;;;5052309;28;20221;-67
2022/06/07 01:00:53;;;;;;;7.30;6.60;;;12.90;99.90;;;;;;5035155;28;20544;-67
2022/06/07 01:03:20;;;;;;;7.70;6.73;;;12.80;99.90;;;;;;5035995;28;20643;-66
2022/06/07 01:05:53;;;;;;;6.90;6.50;;;12.80;99.90;;;;;;5054634;28;20186;-67
2022/06/07 01:11:04;;;;;;;7.27;6.50;;;12.70;99.90;;;;;;5034774;28;20175;-66
2022/06/07 01:13:33;;;;;;;7.60;6.90;;;12.70;99.90;;;;;;5036124;28;20258;-67
2022/06/07 01:16:03;;;;;;;7.63;6.93;;;12.70;99.90;;;;;;5054551;28;20267;-66
2022/06/07 01:18:29;;;;;;;7.10;6.60;;;12.70;99.90;;;;;;5053501;28;20630;-67
2022/06/07 01:21:30;;;;;;;7.70;6.97;;;12.70;99.90;;;;;;5034630;28;20172;-66
2022/06/07 01:23:56;;;;;;;7.50;7.10;;;12.60;99.90;;;;;;5037966;28;20207;-66
2022/06/07 01:26:22;;;;;;;7.77;7.27;;;12.60;99.90;;;;;;5053100;28;20305;-66
2022/06/07 01:28:48;;;;;;;7.87;7.10;;;12.50;99.90;;;;;;5051914;28;20174;-65
2022/06/07 01:31:13;;;;;;;7.60;6.80;;;12.50;99.90;;;;;;5034163;28;20168;-66
2022/06/07 01:33:39;;;;;;;12.03;6.17;;;12.50;99.90;;;;;;5034197;28;20195;-65
2022/06/07 01:36:08;;;;;;;6.67;6.27;;;12.50;99.90;;;;;;5054097;28;20213;-67
2022/06/07 01:38:36;;;;;;;7.80;7.27;;;12.50;99.90;;;;;;5054129;28;20187;-66
2022/06/07 01:43:46;;;;;;;7.33;6.83;;;12.40;99.90;;;;;;5033952;28;20253;-65
2022/06/07 01:46:12;;;;;;;7.83;7.07;;;12.40;99.90;;;;;;5033881;28;20203;-67
2022/06/07 01:48:39;;;;;;;8.13;7.30;;;12.40;99.90;;;;;;5033810;28;20172;-66
2022/06/07 01:51:07;;;;;;;7.67;7.07;;;12.40;99.90;;;;;;5034029;28;20164;-67
2022/06/07 01:53:34;;;;;;;7.07;6.57;;;12.30;99.90;;;;;;5043474;28;20183;-66
2022/06/07 01:56:05;;;;;;;9.53;7.43;;;12.30;99.90;;;;;;5053739;28;20179;-65
2022/06/07 01:58:31;;;;;;;7.40;6.70;;;12.40;99.90;;;;;;5044882;28;20191;-67
2022/06/07 02:00:57;;;;;;;11.70;6.33;;;12.40;99.90;;;;;;5033843;28;20191;-66
2022/06/07 02:03:23;;;;;;;7.57;6.87;;;12.40;99.90;;;;;;5040625;28;20178;-67
2022/06/07 02:06:00;;;;;;;7.83;7.03;;;12.40;99.90;;;;;;5053044;28;20224;-66
2022/06/07 02:08:27;;;;;;;7.00;6.30;;;12.40;99.90;;;;;;5045590;28;20532;-67
2022/06/07 02:10:53;;;;;;;6.67;6.27;;;12.40;99.90;;;;;;5032297;28;20692;-66
2022/06/07 02:13:20;;;;;;;7.47;6.97;;;12.40;99.90;;;;;;5044639;28;20187;-67
2022/06/07 02:15:47;;;;;;;10.17;6.33;;;12.40;99.90;;;;;;5053333;28;20174;-67
2022/06/07 02:18:13;;;;;;;9.87;6.60;;;12.50;99.90;;;;;;5041966;28;20179;-65
2022/06/07 02:20:39;;;;;;;7.60;6.67;;;12.40;99.90;;;;;;5033974;28;20205;-67
2022/06/07 02:23:06;;;;;;;8.10;7.40;;;12.40;99.90;;;;;;5040301;28;20214;-66
2022/06/07 02:25:37;;;;;;;7.00;6.30;;;12.40;99.90;;;;;;5052883;28;20207;-67
2022/06/07 02:28:04;;;;;;;6.83;6.33;;;12.30;99.90;;;;;;5049303;28;20249;-66
2022/06/07 02:30:29;;;;;;;11.07;6.87;;;12.30;99.90;;;;;;5022142;28;20173;-66
2022/06/07 02:32:55;;;;;;;7.33;6.67;;;12.30;99.90;;;;;;5013439;28;20590;-66
2022/06/07 02:35:21;;;;;;;7.50;6.80;;;12.30;99.90;;;;;;5017985;28;20210;-66
2022/06/07 02:37:47;;;;;;;7.57;6.97;;;12.20;99.90;;;;;;5033034;28;20182;-66
2022/06/07 02:40:12;;;;;;;7.17;6.43;;;12.20;99.90;;;;;;5035928;28;20205;-66
2022/06/07 02:42:38;;;;;;;6.80;6.23;;;12.10;99.90;;;;;;5052993;28;20646;-66
2022/06/07 02:45:05;;;;;;;8.23;6.83;;;12.10;99.90;;;;;;5051173;28;20207;-66
2022/06/07 02:47:30;;;;;;;7.37;6.63;;;12.00;99.90;;;;;;5032872;28;20256;-67
2022/06/07 02:49:56;;;;;;;6.83;6.37;;;12.00;99.90;;;;;;5032764;28;20258;-66
2022/06/07 02:52:22;;;;;;;6.90;6.27;;;12.00;99.90;;;;;;5052154;28;20316;-66
2022/06/07 02:54:48;;;;;;;7.50;6.77;;;12.00;99.90;;;;;;5052131;28;20229;-67
2022/06/07 02:57:14;;;;;;;6.70;6.30;;;11.90;99.90;;;;;;5034862;28;20759;-65
2022/06/07 02:59:40;;;;;;;6.97;6.47;;;11.90;99.90;;;;;;5032993;28;20180;-65
2022/06/07 03:02:06;;;;;;;6.63;6.10;;;11.80;99.90;;;;;;5047919;28;20270;-66
2022/06/07 03:04:32;;;;;;;9.33;6.30;;;11.80;99.90;;;;;;5052628;28;20717;-63
2022/06/07 03:06:57;;;;;;;6.73;6.33;;;11.80;99.90;;;;;;5049693;28;20737;-65
2022/06/07 03:09:23;;;;;;;6.77;6.27;;;11.70;99.90;;;;;;5052612;28;20175;-65
2022/06/07 03:11:49;;;;;;;6.97;6.27;;;11.70;99.90;;;;;;5040191;28;20631;-66
2022/06/07 03:14:14;;;;;;;6.63;6.23;;;11.70;99.90;;;;;;5032172;28;20203;-65
2022/06/07 03:16:40;;;;;;;7.33;6.60;;;11.60;99.90;;;;;;5043159;28;20209;-65
2022/06/07 03:19:06;;;;;;;7.00;6.30;;;11.60;99.90;;;;;;5052417;28;20181;-67
2022/06/07 03:21:32;;;;;;;7.07;6.37;;;11.60;99.90;;;;;;5032495;28;20191;-66
2022/06/07 03:23:58;;;;;;;6.57;5.80;;;11.50;99.90;;;;;;5031889;28;20207;-66
2022/06/07 03:26:24;;;;;;;7.20;6.57;;;11.60;99.90;;;;;;5050298;28;20217;-66
2022/06/07 03:28:49;;;;;;;6.80;6.20;;;11.60;99.90;;;;;;5052418;28;20177;-65
2022/06/07 03:31:17;;;;;;;9.37;6.13;;;11.60;99.90;;;;;;5035525;28;20179;-66
2022/06/07 03:33:44;;;;;;;7.37;6.77;;;11.60;99.90;;;;;;5033504;28;20217;-66
2022/06/07 03:36:17;;;;;;;6.87;6.33;;;11.60;99.90;;;;;;5050650;28;20178;-65
2022/06/07 03:38:43;;;;;;;7.07;6.43;;;11.70;99.90;;;;;;5050064;28;20170;-66
2022/06/07 03:41:15;;;;;;;7.27;5.97;;;11.70;99.90;;;;;;5032061;28;20544;-66
2022/06/07 03:43:40;;;;;;;6.80;6.40;;;11.70;99.90;;;;;;5032228;28;20221;-65
2022/06/07 03:46:12;;;;;;;6.53;6.00;;;11.70;99.90;;;;;;5050410;28;20687;-65
2022/06/07 03:48:39;;;;;;;6.70;6.10;;;11.70;99.90;;;;;;5037529;28;20202;-65
2022/06/07 03:51:06;;;;;;;6.47;6.07;;;11.70;99.90;;;;;;5031819;28;20666;-65
2022/06/07 03:53:31;;;;;;;6.33;5.90;;;11.70;99.90;;;;;;5051393;28;20163;-65
2022/06/07 03:55:57;;;;;;;6.97;6.30;;;11.70;99.90;;;;;;5051748;28;20248;-66
2022/06/07 03:58:22;;;;;;;6.50;6.07;;;11.70;99.90;;;;;;5033153;28;20175;-65
2022/06/07 04:00:48;;;;;;;5.93;5.53;;;11.70;99.90;;;;;;5031928;28;20653;-66
2022/06/07 04:03:16;;;;;;;6.83;6.17;;;11.70;99.90;;;;;;5046768;28;20559;-66
2022/06/07 04:05:44;;;;;;;7.17;6.47;;;11.80;99.90;;;;;;5051100;28;20194;-66
2022/06/07 04:08:13;;;;;;;6.87;5.60;;;11.90;99.90;;;;;;5035943;28;20167;-65
2022/06/07 04:11:10;;;;;;;6.23;5.87;;;12.00;99.90;;;;;;5031785;28;20198;-65
2022/06/07 04:13:35;;;;;;;6.67;6.17;;;12.00;99.90;;;;;;5043753;28;20214;-65
2022/06/07 04:16:15;;;;;;;8.90;5.80;;;12.00;99.90;;;;;;5051474;28;20634;-65
2022/06/07 04:18:41;;;;;;;7.10;6.10;;;12.10;99.90;;;;;;5033116;28;20175;-66
2022/06/07 04:21:08;;;;;;;6.10;5.60;;;12.20;99.90;;;;;;5031506;28;20185;-66
2022/06/07 04:26:13;;;;;;;5.83;5.53;;;12.70;99.90;;;;;;5073187;22;20234;-65
2022/06/07 04:28:39;;;;;;;5.43;5.03;;;13.00;99.90;;;;;;5052561;28;20205;-66
2022/06/07 04:31:14;;;;;;;5.80;5.50;;;13.40;99.90;;;;;;5051378;28;20171;-65
2022/06/07 04:33:41;;;;;;;5.80;5.30;;;13.50;99.90;;;;;;5067153;28;20247;-65
2022/06/07 04:36:22;;;;;;;7.10;6.17;;;13.80;99.90;;;;;;5071461;28;20600;-65
2022/06/07 04:38:52;;;;;;;6.10;5.80;;;14.20;99.90;;;;;;5055009;28;20187;-64
2022/06/07 04:41:20;;;;;;;7.10;5.20;;;14.50;99.90;;;;;;5051403;28;20220;-64
2022/06/07 04:43:50;;;;;;;5.43;5.13;;;15.00;99.90;;;;;;5066254;28;20185;-64
2022/06/07 04:46:16;;;;;;;4.90;4.60;;;15.50;99.90;;;;;;5071677;28;20210;-64
2022/06/07 04:48:43;;;;;;;5.00;4.70;;;16.00;99.90;;;;;;5056725;28;20189;-64
2022/06/07 04:51:18;;;;;;;4.93;4.63;;;16.40;99.90;;;;;;5051215;28;20562;-64
2022/06/07 04:53:44;;;;;;;5.50;4.70;;;16.70;99.90;;;;;;5064456;28;20231;-64
2022/06/07 04:56:18;;;;;;;5.77;5.07;;;16.80;99.90;;;;;;5059370;28;20179;-63
2022/06/07 04:58:44;;;;;;;4.70;4.50;;;16.90;99.90;;;;;;5051426;28;20202;-65
2022/06/07 05:01:16;;;;;;;6.33;4.90;;;16.80;99.90;;;;;;5061710;28;20210;-63
2022/06/07 05:03:42;;;;;;;4.87;4.47;;;16.70;99.90;;;;;;5070753;28;20201;-64
2022/06/07 05:06:21;;;;;;;7.40;5.10;;;16.60;99.90;;;;;;5060742;28;20234;-63
2022/06/07 05:08:47;;;;;;;4.63;4.20;;;16.40;99.90;;;;;;5051297;28;20232;-64
2022/06/07 05:11:13;;;;;;;4.50;4.20;;;16.40;99.90;;;;;;5060659;28;20274;-64
2022/06/07 05:13:40;;;;;;;4.47;4.20;;;16.30;99.90;;;;;;5070646;28;20254;-65
2022/06/07 05:16:06;;;;;;;4.93;4.53;;;16.20;99.90;;;;;;5062418;28;20182;-64
2022/06/07 05:18:32;;;;;;;5.40;4.90;;;16.20;99.90;;;;;;5051074;28;20244;-65
2022/06/07 05:20:58;;;;;;;8.17;4.70;;;16.20;99.90;;;;;;5056963;28;20236;-64
2022/06/07 05:23:24;;;;;;;5.73;5.23;;;16.10;99.90;;;;;;5071072;28;20174;-64
2022/06/07 05:25:55;;;;;;;4.80;4.50;;;16.10;99.90;;;;;;5069259;28;20202;-65
2022/06/07 05:28:21;;;;;;;5.23;4.80;;;16.20;99.90;;;;;;5053334;28;20201;-64
2022/06/07 05:30:47;;;;;;;4.60;4.30;;;16.10;99.90;;;;;;5055702;28;20192;-65
2022/06/07 05:33:12;;;;;;;4.60;4.30;;;16.10;99.90;;;;;;5054433;28;20194;-64
2022/06/07 05:35:38;;;;;;;4.70;4.30;;;16.00;99.90;;;;;;5055834;28;20674;-64
2022/06/07 05:38:04;;;;;;;4.73;4.40;;;16.10;99.90;;;;;;5074210;28;20253;-65
2022/06/07 05:40:29;;;;;;;5.13;4.70;;;16.10;99.90;;;;;;5073865;28;20533;-65
2022/06/07 05:42:56;;;;;;;6.40;5.80;;;16.20;99.90;;;;;;5054405;28;20260;-64
2022/06/07 05:45:22;;;;;;;4.40;4.10;;;16.30;99.90;;;;;;5054046;28;20198;-64
2022/06/07 05:47:48;;;;;;;4.97;4.33;;;16.50;99.90;;;;;;5072698;28;20189;-64
2022/06/07 05:50:13;;;;;;;4.60;4.30;;;16.90;99.90;;;;;;5069825;28;20182;-65
2022/06/07 05:52:42;;;;;;;4.50;4.10;;;17.50;99.90;;;;;;5054248;28;20595;-65
2022/06/07 05:55:08;;;;;;;4.10;3.90;;;18.00;99.90;;;;;;5055860;28;20199;-64
2022/06/07 05:57:34;;;;;;;4.50;3.93;;;18.40;99.90;;;;;;5073990;28;20182;-65
2022/06/07 06:00:00;;;;;;;4.20;3.90;;;18.80;99.90;;;;;;5061536;28;20205;-65
2022/06/07 06:02:25;;;;;;;4.80;3.87;;;19.20;99.90;;;;;;5053969;28;20190;-65
2022/06/07 06:04:51;;;;;;;3.73;3.43;;;19.40;99.90;;;;;;5064864;28;20205;-64
2022/06/07 06:07:18;;;;;;;3.90;3.60;;;19.80;99.90;;;;;;5073687;28;20213;-65
2022/06/07 06:12:28;;;;;;;6.40;4.10;;;20.30;99.90;;;;;;5054020;28;20185;-65
2022/06/07 06:14:54;;;;;;;3.97;3.50;;;20.50;99.90;;;;;;5063493;28;20661;-64
2022/06/07 06:17:19;;;;;;;4.15;3.60;;;20.70;99.90;;;;;;5073605;28;20182;-65
2022/06/07 06:19:46;;;;;;;3.60;3.40;;;21.00;99.90;;;;;;5068209;28;20663;-65
2022/06/07 06:22:13;;;;;;;3.60;3.30;;;20.90;99.90;;;;;;5053137;28;20182;-64
2022/06/07 06:24:39;;;;;;;4.03;3.60;;;20.70;99.90;;;;;;5054223;28;20380;-64
2022/06/07 06:27:05;;;;;;;3.78;3.40;;;20.70;99.90;;;;;;5053343;28;20214;-65
2022/06/07 06:29:31;;;;;;;3.95;3.25;;;21.00;99.90;;;;;;5054767;28;20179;-65
2022/06/07 06:31:56;;;;;;;3.53;3.33;;;21.40;99.90;;;;;;5063711;28;20214;-65
2022/06/07 06:34:23;;;;;;;3.70;3.40;;;21.80;99.90;;;;;;5052707;28;20320;-65
2022/06/07 06:36:49;;;;;;;5.63;3.22;;;22.10;99.90;;;;;;5054886;28;20186;-64
2022/06/07 06:39:15;;;;;;;3.10;2.90;;;22.40;99.90;;;;;;5073141;28;20617;-65
2022/06/07 06:41:43;;;;;;;4.50;3.42;;;22.40;99.90;;;;;;5071979;28;20583;-65
2022/06/07 06:44:10;;;;;;;5.88;3.85;;;22.00;99.90;;;;;;5052472;28;20195;-65
2022/06/07 06:46:39;;;;;;;3.45;3.20;;;22.00;99.90;;;;;;5053184;28;20503;-66
2022/06/07 06:49:06;;;;;;;9.13;3.78;;;22.00;99.90;;;;;;5032937;28;20172;-65
2022/06/07 06:51:32;;;;;;;3.40;3.20;;;22.10;99.90;;;;;;5033218;28;20526;-65
2022/06/07 06:54:00;;;;;;;3.80;3.53;;;22.10;99.90;;;;;;5070147;28;20201;-66
2022/06/07 06:56:28;;;;;;;3.90;3.60;;;21.80;99.90;;;;;;5061520;28;20190;-64
2022/06/07 06:58:53;;;;;;;3.45;3.10;;;21.80;99.90;;;;;;5052981;28;20175;-64
2022/06/07 07:01:22;;;;;;;4.10;3.20;;;21.60;99.90;;;;;;5061928;28;20204;-64
2022/06/07 07:03:48;;;;;;;4.30;3.40;;;21.30;99.90;;;;;;5072307;28;20182;-64
2022/06/07 07:06:16;;;;;;;3.33;3.13;;;21.30;99.90;;;;;;5065514;28;20232;-65
2022/06/07 07:08:43;;;;;;;3.85;3.55;;;21.60;99.90;;;;;;5072631;28;20178;-65
2022/06/07 07:11:22;;;;;;;3.85;3.65;;;21.60;99.90;;;;;;5056441;28;20730;-65
2022/06/07 07:13:50;;;;;;;4.05;3.70;;;21.50;99.90;;;;;;5052241;28;20181;-65
2022/06/07 07:16:18;;;;;;;5.30;3.20;;;21.50;99.90;;;;;;5068017;28;20257;-66
2022/06/07 07:18:44;;;;;;;3.83;2.90;;;21.80;99.90;;;;;;5072338;28;20218;-65
2022/06/07 07:21:39;;;;;;;3.40;3.20;;;22.30;99.90;;;;;;5057302;28;20252;-65
2022/06/07 07:24:09;;;;;;;3.35;3.00;;;23.00;99.90;;;;;;5050269;28;20229;-65
2022/06/07 07:26:36;;;;;;;3.50;3.22;;;23.90;99.90;;;;;;5069636;28;20206;-66
2022/06/07 07:29:03;;;;;;;4.15;3.50;;;23.40;99.90;;;;;;5071997;28;20169;-65
2022/06/07 07:31:36;;;;;;;4.47;3.50;;;23.10;99.90;;;;;;5055746;28;20170;-65
2022/06/07 07:34:03;;;;;;;3.22;3.03;;;22.80;99.90;;;;;;5055875;28;20186;-64
2022/06/07 07:36:30;;;;;;;3.80;3.28;;;22.60;99.90;;;;;;5072102;28;20209;-65
2022/06/07 07:38:57;;;;;;;3.40;3.20;;;22.20;99.90;;;;;;5066488;28;20939;-64
2022/06/07 07:41:27;;;;;;;4.10;3.20;;;22.10;99.90;;;;;;5052114;28;20182;-64
2022/06/07 07:43:54;;;;;;;3.85;3.38;;;21.80;99.90;;;;;;5053154;28;20189;-66
2022/06/07 07:46:21;;;;;;;3.77;3.00;;;21.50;99.90;;;;;;5071474;28;20300;-65
2022/06/07 07:48:48;;;;;;;3.70;3.42;;;21.50;99.90;;;;;;5060233;28;20175;-65
2022/06/07 07:51:28;;;;;;;3.72;3.50;;;21.70;99.90;;;;;;5061667;28;20235;-66
2022/06/07 07:53:55;;;;;;;3.58;3.33;;;22.10;99.90;;;;;;5071420;28;20641;-65
2022/06/07 07:56:21;;;;;;;4.80;3.47;;;22.60;99.90;;;;;;5060857;28;20193;-65
2022/06/07 07:58:48;;;;;;;4.00;3.05;;;23.40;99.90;;;;;;5051803;28;20171;-65
2022/06/07 08:01:17;;;;;;;3.38;3.08;;;23.80;99.90;;;;;;5060239;28;20173;-65
2022/06/07 08:03:43;;;;;;;3.22;2.92;;;23.70;99.90;;;;;;5070321;28;20174;-65
2022/06/07 08:06:12;;;;;;;3.45;3.13;;;23.50;99.90;;;;;;5054769;28;20203;-65
2022/06/07 08:08:39;;;;;;;4.63;4.22;;;23.30;99.90;;;;;;5051618;28;20568;-66
2022/06/07 08:11:05;;;;;;;3.95;3.28;;;23.10;99.90;;;;;;5065908;28;20178;-66
2022/06/07 08:13:31;;;;;;;5.60;3.85;;;22.70;99.90;;;;;;5049585;28;20653;-65
2022/06/07 08:15:57;;;;;;;3.55;3.35;;;22.50;99.90;;;;;;5064153;28;20556;-64
2022/06/07 08:18:23;;;;;;;4.60;3.08;;;22.40;99.90;;;;;;5071248;28;20257;-66
2022/06/07 08:20:49;;;;;;;3.75;3.40;;;22.20;99.90;;;;;;5063588;28;20186;-65
2022/06/07 08:23:16;;;;;;;6.18;3.55;;;22.00;99.90;;;;;;5071061;28;20174;-65
2022/06/07 08:25:42;;;;;;;3.60;3.30;;;22.00;99.90;;;;;;5060507;28;20558;-66
2022/06/07 08:28:07;;;;;;;4.43;3.80;;;22.00;99.90;;;;;;5051048;28;20216;-65
2022/06/07 08:30:37;;;;;;;3.72;3.40;;;22.00;99.90;;;;;;5059434;28;20170;-65
2022/06/07 08:37:32;;;;;;;5.03;3.40;;;22.00;99.90;;;;;;5070940;28;20166;-65
2022/06/07 08:38:33;;;;;;;4.57;3.28;;;21.90;99.90;;;;;;5051384;28;20613;-65
2022/06/07 08:40:58;;;;;;;4.23;3.83;;;21.60;99.90;;;;;;5052145;28;20209;-64
2022/06/07 08:43:25;;;;;;;4.80;3.53;;;21.50;99.90;;;;;;5051024;28;20224;-64
2022/06/07 08:45:53;;;;;;;5.23;3.57;;;21.40;99.90;;;;;;5057956;28;20746;-65
2022/06/07 08:48:26;;;;;;;3.73;3.40;;;21.00;99.90;;;;;;5071239;28;20182;-65
2022/06/07 08:51:21;;;;;;;5.90;3.57;;;21.10;99.90;;;;;;5060056;28;20542;-65
2022/06/07 08:53:52;;;;;;;3.65;3.30;;;21.40;99.90;;;;;;5070783;28;20176;-66
2022/06/07 08:56:26;;;;;;;3.97;3.38;;;21.60;99.90;;;;;;5058741;28;20196;-64
2022/06/07 08:58:55;;;;;;;3.63;3.30;;;21.70;99.90;;;;;;5051271;28;20170;-65
2022/06/07 09:01:27;;;;;;;3.50;3.30;;;22.00;99.90;;;;;;5066352;28;20174;-65
2022/06/07 09:03:59;;;;;;;5.55;3.63;;;22.30;99.90;;;;;;5074573;28;20170;-65
2022/06/07 09:06:29;;;;;;;4.82;3.75;;;22.90;99.90;;;;;;5063302;28;20214;-65
2022/06/07 09:08:59;;;;;;;3.42;3.10;;;23.40;99.90;;;;;;5062994;28;20268;-65
2022/06/07 09:14:32;;;;;;;5.32;3.22;;;24.40;99.90;;;;;;5061977;28;20206;-66
2022/06/07 09:17:00;;;;;;;3.10;2.90;;;25.40;99.90;;;;;;5054479;28;20192;-65
2022/06/07 09:19:28;;;;;;;3.50;3.20;;;25.70;99.90;;;;;;5065687;28;20669;-65
2022/06/07 09:22:01;;;;;;;4.00;3.70;;;25.60;99.90;;;;;;5074721;28;20174;-66
2022/06/07 09:24:32;;;;;;;4.00;3.67;;;25.20;99.90;;;;;;5061702;28;20214;-66
2022/06/07 09:27:15;;;;;;;3.63;3.42;;;24.90;99.90;;;;;;5054380;28;20244;-66
2022/06/07 09:29:42;;;;;;;4.03;3.83;;;24.70;99.90;;;;;;5066970;28;20653;-64
2022/06/07 09:32:15;;;;;;;3.60;3.40;;;24.70;99.90;;;;;;5074133;28;20253;-65
2022/06/07 09:35:12;;;;;;;4.88;3.72;;;24.70;99.90;;;;;;5071818;28;20194;-66
2022/06/07 09:37:49;;;;;;;3.88;3.47;;;24.90;99.90;;;;;;5054903;28;20571;-65
2022/06/07 09:40:53;;;;;;;4.20;3.05;;;25.20;99.90;;;;;;5057842;28;20178;-65
2022/06/07 09:43:27;;;;;;;3.53;3.22;;;25.60;99.90;;;;;;5050644;28;20198;-66
2022/06/07 09:45:57;;;;;;;3.63;3.33;;;25.90;99.90;;;;;;5034201;28;20286;-65
2022/06/07 09:48:38;;;;;;;3.75;3.20;;;26.10;99.90;;;;;;5037388;28;20170;-66
2022/06/07 09:51:24;;;;;;;3.55;3.20;;;26.20;99.90;;;;;;5053960;28;20186;-65
2022/06/07 09:54:01;;;;;;;3.10;2.90;;;25.90;99.90;;;;;;5058667;28;20257;-66
2022/06/07 09:56:35;;;;;;;3.60;3.30;;;25.90;99.90;;;;;;5073982;28;20243;-65
2022/06/07 09:59:09;;;;;;;3.50;3.30;;;25.70;99.90;;;;;;5067973;28;20174;-65
2022/06/07 10:01:42;;;;;;;3.13;3.03;;;25.60;99.90;;;;;;5054657;28;20212;-66
2022/06/07 10:04:25;;;;;;;2.85;2.75;;;25.30;99.90;;;;;;5073165;28;20676;-65
2022/06/07 10:06:59;;;;;;;3.30;3.10;;;25.40;99.90;;;;;;5070785;28;20259;-64
2022/06/07 10:09:39;;;;;;;3.58;3.38;;;25.40;99.90;;;;;;5053432;28;20189;-64
2022/06/07 10:12:31;;;;;;;3.70;3.50;;;25.50;99.90;;;;;;5056590;28;20174;-65
2022/06/07 10:15:22;;;;;;;3.40;3.10;;;26.20;99.90;;;;;;5068650;28;20194;-65
2022/06/07 10:18:10;;;;;;;3.22;3.00;;;26.40;99.90;;;;;;5053542;28;20186;-66
2022/06/07 10:20:42;;;;;;;3.38;2.90;;;26.50;99.90;;;;;;5071587;28;20193;-65
2022/06/07 10:23:11;;;;;;;3.53;3.22;;;26.70;99.90;;;;;;5073296;28;20174;-65
2022/06/07 10:26:00;;;;;;;2.90;2.75;;;26.90;99.90;;;;;;5055691;28;20689;-66
2022/06/07 10:28:37;;;;;;;3.10;2.90;;;27.10;99.90;;;;;;5053764;28;20608;-67
2022/06/07 10:31:37;;;;;;;3.17;2.92;;;26.90;99.90;;;;;;5033234;28;20177;-66
2022/06/07 10:34:11;;;;;;;3.65;3.15;;;26.80;99.90;;;;;;5006606;28;20202;-66
2022/06/07 10:37:05;;;;;;;3.25;3.05;;;26.70;99.90;;;;;;5064558;28;20552;-66
2022/06/07 10:39:41;;;;;;;3.53;3.33;;;26.20;99.90;;;;;;5053443;28;20308;-67
2022/06/07 10:42:40;;;;;;;3.40;3.15;;;25.20;99.90;;;;;;5053110;28;20589;-66
2022/06/07 10:45:21;;;;;;;2.90;2.80;;;24.80;99.90;;;;;;5063352;28;20198;-66
2022/06/07 10:48:04;;;;;;;4.35;3.20;;;24.40;99.90;;;;;;5073123;28;20244;-66
2022/06/07 10:50:43;;;;;;;3.30;3.10;;;24.80;99.90;;;;;;5059257;28;20175;-66
2022/06/07 10:53:20;;;;;;;3.40;3.10;;;24.90;99.90;;;;;;5053058;28;20210;-65
2022/06/07 10:56:08;;;;;;;3.22;3.03;;;25.10;99.90;;;;;;5053920;28;20240;-66
2022/06/07 10:58:47;;;;;;;3.60;3.30;;;25.60;99.90;;;;;;5052957;28;20249;-66
2022/06/07 11:01:18;;;;;;;3.65;3.30;;;25.70;99.90;;;;;;5071113;28;20205;-66
2022/06/07 11:10:44;;;;;;;3.90;3.38;;;25.80;99.90;;;;;;5009988;28;20202;-65
2022/06/07 11:13:16;;;;;;;6.15;3.42;;;26.10;99.90;;;;;;5072824;28;20227;-66
2022/06/07 11:15:56;;;;;;;5.00;3.90;;;26.00;99.90;;;;;;5059861;28;20237;-67
2022/06/07 11:18:26;;;;;;;3.65;3.40;;;26.00;99.90;;;;;;5052509;28;20182;-66
2022/06/07 11:21:01;;;;;;;3.78;3.47;;;25.90;99.90;;;;;;5065589;28;20185;-67
2022/06/07 11:23:31;;;;;;;3.55;3.30;;;25.50;99.90;;;;;;5071811;28;20177;-66
2022/06/07 11:26:04;;;;;;;3.50;3.20;;;25.20;99.90;;;;;;5060565;28;20653;-65
2022/06/07 11:28:34;;;;;;;3.55;3.35;;;25.20;99.90;;;;;;5072232;28;20668;-67
2022/06/07 11:31:22;;;;;;;3.53;3.13;;;24.70;99.90;;;;;;5070517;28;20174;-66
2022/06/07 11:33:51;;;;;;;3.50;3.30;;;24.40;99.90;;;;;;5071805;28;20174;-65
2022/06/07 11:36:37;;;;;;;3.63;3.30;;;23.80;99.90;;;;;;5056841;28;20220;-67
2022/06/07 11:39:22;;;;;;;3.90;3.60;;;23.30;99.90;;;;;;5052134;28;20646;-66
2022/06/07 11:41:51;;;;;;;3.97;3.78;;;22.70;99.90;;;;;;5070727;28;20182;-65
2022/06/07 11:44:17;;;;;;;3.65;3.45;;;22.30;99.90;;;;;;5071794;28;20564;-66
2022/06/07 11:46:51;;;;;;;4.95;4.65;;;21.80;99.90;;;;;;5054257;28;20206;-66
2022/06/07 11:49:29;;;;;;;5.47;4.97;;;21.60;99.90;;;;;;5064037;28;20224;-66
2022/06/07 11:52:02;;;;;;;4.70;4.40;;;21.40;99.90;;;;;;5072026;28;20547;-66
2022/06/07 11:54:48;;;;;;;5.60;5.10;;;21.30;99.90;;;;;;5058201;28;20199;-66
2022/06/07 11:57:28;;;;;;;5.10;4.70;;;21.00;99.90;;;;;;5052194;28;20261;-66
2022/06/07 11:59:57;;;;;;;7.50;4.83;;;20.80;99.90;;;;;;5052872;28;20208;-66
2022/06/07 12:02:24;;;;;;;6.80;5.03;;;20.70;99.90;;;;;;5051952;28;20171;-65
2022/06/07 12:04:58;;;;;;;7.00;6.47;;;20.50;99.90;;;;;;5052577;28;20580;-67
2022/06/07 12:07:51;;;;;;;5.43;5.03;;;20.40;99.90;;;;;;5051636;28;20584;-66
2022/06/07 12:10:17;;;;;;;5.03;4.73;;;20.40;99.90;;;;;;5031420;28;20647;-66
2022/06/07 12:12:50;;;;;;;5.20;4.80;;;20.60;99.90;;;;;;5031660;28;20175;-66
2022/06/07 12:15:18;;;;;;;6.93;5.67;;;20.70;99.90;;;;;;5070525;28;20240;-66
2022/06/07 12:17:55;;;;;;;5.23;5.03;;;20.70;99.90;;;;;;5071510;28;20173;-66
2022/06/07 12:20:33;;;;;;;5.30;4.90;;;20.70;99.90;;;;;;5051559;28;20465;-65
2022/06/07 12:23:23;;;;;;;5.90;5.57;;;21.00;99.90;;;;;;5051286;28;20179;-66
2022/06/07 12:26:07;;;;;;;4.63;4.23;;;21.40;99.90;;;;;;5031241;28;20265;-65
2022/06/07 12:28:35;;;;;;;4.05;3.85;;;22.00;99.90;;;;;;5052724;28;20178;-66
2022/06/07 12:31:22;;;;;;;7.13;5.13;;;22.20;99.90;;;;;;5071221;28;20182;-65
2022/06/07 12:33:53;;;;;;;5.90;5.60;;;22.20;99.90;;;;;;5068339;28;20247;-66
2022/06/07 12:36:31;;;;;;;4.70;4.40;;;22.20;99.90;;;;;;5071095;28;20174;-66
2022/06/07 12:39:03;;;;;;;5.40;5.10;;;22.20;99.90;;;;;;5057342;28;20182;-66
2022/06/07 12:41:33;;;;;;;6.22;5.78;;;22.10;99.90;;;;;;5051360;28;20178;-65
2022/06/07 12:44:02;;;;;;;5.97;5.57;;;21.80;99.90;;;;;;5063409;28;20209;-64
2022/06/07 12:46:46;;;;;;;6.77;5.07;;;21.40;99.90;;;;;;5071169;28;20210;-66
2022/06/07 12:49:22;;;;;;;5.60;5.10;;;21.10;99.90;;;;;;5057029;28;20175;-66
2022/06/07 12:52:18;;;;;;;5.73;5.33;;;20.90;99.90;;;;;;5051246;28;20179;-66
2022/06/07 12:54:50;;;;;;;5.00;4.60;;;20.80;99.90;;;;;;5051358;28;20296;-65
2022/06/07 12:57:29;;;;;;;5.53;5.13;;;20.80;99.90;;;;;;5051147;28;20186;-65
2022/06/07 13:00:00;;;;;;;6.30;5.90;;;20.90;99.90;;;;;;5069393;28;20273;-65
2022/06/07 13:02:53;;;;;;;5.77;5.40;;;20.90;99.90;;;;;;5071057;28;20264;-66
2022/06/07 13:05:24;;;;;;;7.43;6.93;;;20.90;99.90;;;;;;5030587;28;20622;-65
2022/06/07 13:07:52;;;;;;;5.70;5.23;;;21.10;99.90;;;;;;5031616;28;20211;-65
2022/06/07 13:10:21;;;;;;;6.47;6.17;;;21.20;99.90;;;;;;5070881;28;20174;-65
2022/06/07 13:12:54;;;;;;;8.03;7.63;;;21.20;99.90;;;;;;5071128;28;20167;-65
2022/06/07 13:15:26;;;;;;;5.33;4.90;;;21.30;99.90;;;;;;5054085;28;20229;-65
2022/06/07 13:17:56;;;;;;;5.30;4.90;;;21.50;99.90;;;;;;5052898;28;20183;-65
2022/06/07 13:20:34;;;;;;;5.50;5.20;;;21.60;99.90;;;;;;5050728;28;20193;-65
2022/06/07 13:23:00;;;;;;;6.40;5.82;;;21.90;99.90;;;;;;5050887;28;20178;-65
2022/06/07 13:25:31;;;;;;;5.60;5.18;;;22.30;99.90;;;;;;5050378;28;20306;-65
2022/06/07 13:28:00;;;;;;;5.50;5.10;;;22.60;99.90;;;;;;5050552;28;20681;-65